New Hartford, Connecticut
Current Conditions -  °F | °C
As of 1:51 PM on Friday 31 Oct 2014 (Local Time) from KBDL Reporting Station
Overcast Overcast  
Wind Chill: 53°   Ceiling: 20000
Heat Index: 53°   Visibility: 10mi
Dew Point: 38°   Wind: 7mph
Humidity: 57%   Direction: 20°NNE
Pressure: 29.95"   Gusts: NA
Location:  41.88°N, 72.98°W
Report Text: KBDL 311751Z 02006KT 10SM SCT055 BKN200 OVC250 12/03 A2995 RMK AO2 SLP144 T01170033 10122 20006 58022
Loading
Personal Weather Stations






























Interactive Weather Map New forecast layout! Learn more

10-Day Weather Forecast

Advertisements
Track Severe Weather on mobile